createdAt,value
2023-05-04T00:01:04.348Z,9.50
2023-05-04T00:03:31.217Z,9.40
2023-05-04T00:05:57.845Z,9.40
2023-05-04T00:08:24.423Z,9.40
2023-05-04T00:10:50.994Z,9.30
2023-05-04T00:13:17.561Z,9.20
2023-05-04T00:15:44.088Z,9.20
2023-05-04T00:18:10.686Z,9.20
2023-05-04T00:20:37.337Z,9.00
2023-05-04T00:23:03.918Z,9.10
2023-05-04T00:25:30.716Z,9.00
2023-05-04T00:27:57.594Z,8.90
2023-05-04T00:30:24.151Z,8.90
2023-05-04T00:32:50.724Z,8.80
2023-05-04T00:35:17.384Z,8.80
2023-05-04T00:37:45.162Z,8.80
2023-05-04T00:40:12.050Z,8.70
2023-05-04T00:42:38.562Z,8.70
2023-05-04T00:45:05.493Z,8.70
2023-05-04T00:47:32.119Z,8.80
2023-05-04T00:49:59.087Z,8.50
2023-05-04T00:52:25.710Z,8.40
2023-05-04T00:54:52.915Z,8.40
2023-05-04T00:57:19.656Z,8.20
2023-05-04T00:59:47.675Z,8.30
2023-05-04T01:02:14.242Z,8.30
2023-05-04T01:04:40.862Z,8.30
2023-05-04T01:07:29.198Z,8.30
2023-05-04T01:10:04.636Z,8.20
2023-05-04T01:12:35.847Z,8.20
2023-05-04T01:15:03.010Z,8.10
2023-05-04T01:17:29.673Z,8.00
2023-05-04T01:19:56.254Z,8.00
2023-05-04T01:22:22.970Z,8.00
2023-05-04T01:24:50.199Z,7.90
2023-05-04T01:29:49.780Z,8.10
2023-05-04T01:32:17.837Z,8.00
2023-05-04T01:34:44.448Z,7.90
2023-05-04T01:37:11.171Z,7.90
2023-05-04T01:39:37.774Z,7.80
2023-05-04T01:42:04.981Z,8.00
2023-05-04T01:44:31.576Z,7.80
2023-05-04T01:46:58.139Z,7.80
2023-05-04T01:49:24.712Z,7.70
2023-05-04T01:51:51.273Z,7.70
2023-05-04T01:54:17.788Z,7.70
2023-05-04T01:56:44.453Z,7.70
2023-05-04T01:59:11.676Z,7.80
2023-05-04T02:04:05.480Z,7.80
2023-05-04T02:06:32.134Z,7.80
2023-05-04T02:11:25.790Z,7.70
2023-05-04T02:13:52.325Z,7.60
2023-05-04T02:16:18.971Z,7.60
2023-05-04T02:18:46.446Z,7.50
2023-05-04T02:21:13.213Z,7.50
2023-05-04T02:23:39.775Z,7.50
2023-05-04T02:28:33.528Z,7.50
2023-05-04T03:10:14.143Z,8.90
2023-05-04T03:17:34.872Z,7.70
2023-05-04T03:20:01.623Z,7.10
2023-05-04T03:22:28.264Z,7.10
2023-05-04T03:24:54.807Z,7.20
2023-05-04T03:27:21.334Z,7.00
2023-05-04T03:29:47.904Z,6.90
2023-05-04T03:32:14.535Z,6.80
2023-05-04T03:34:41.475Z,6.80
2023-05-04T03:37:08.245Z,6.80
2023-05-04T03:39:34.836Z,6.80
2023-05-04T03:42:01.430Z,6.80
2023-05-04T03:44:27.987Z,6.70
2023-05-04T03:46:54.549Z,6.70
2023-05-04T03:49:21.359Z,6.70
2023-05-04T03:51:47.966Z,6.60
2023-05-04T03:54:14.753Z,6.70
2023-05-04T03:56:41.383Z,6.80
2023-05-04T03:59:07.989Z,6.70
2023-05-04T04:01:34.541Z,6.80
2023-05-04T04:04:01.234Z,6.80
2023-05-04T04:06:27.831Z,6.80
2023-05-04T04:08:54.471Z,6.80
2023-05-04T04:11:21.087Z,6.80
2023-05-04T04:13:47.614Z,6.90
2023-05-04T04:16:14.270Z,6.90
2023-05-04T04:18:40.830Z,9.80
2023-05-04T04:21:07.406Z,6.90
2023-05-04T04:23:33.993Z,7.00
2023-05-04T04:26:01.491Z,7.00
2023-05-04T04:28:28.628Z,7.10
2023-05-04T04:33:22.581Z,7.20
2023-05-04T04:35:49.188Z,7.20
2023-05-04T04:38:16.294Z,7.20
2023-05-04T04:40:45.331Z,7.40
2023-05-04T04:43:12.967Z,7.40
2023-05-04T04:45:41.235Z,7.40
2023-05-04T04:48:07.961Z,7.80
2023-05-04T04:50:38.126Z,7.50
2023-05-04T04:53:04.705Z,7.60
2023-05-04T04:55:31.301Z,7.70
2023-05-04T04:57:57.834Z,7.80
2023-05-04T05:00:26.146Z,7.90
2023-05-04T05:02:52.859Z,7.90
2023-05-04T05:05:19.729Z,8.10
2023-05-04T05:07:46.433Z,8.00
2023-05-04T05:10:13.221Z,8.30
2023-05-04T05:12:39.810Z,8.30
2023-05-04T05:15:07.441Z,8.40
2023-05-04T05:17:35.679Z,8.50
2023-05-04T05:20:02.498Z,8.70
2023-05-04T05:22:29.319Z,8.80
2023-05-04T05:24:55.896Z,11.20
2023-05-04T05:27:22.493Z,9.10
2023-05-04T05:29:49.046Z,10.10
2023-05-04T05:32:15.621Z,9.40
2023-05-04T05:39:37.139Z,11.60
2023-05-04T05:42:03.745Z,11.20
2023-05-04T05:44:30.304Z,12.10
2023-05-04T05:46:56.995Z,11.90
2023-05-04T05:49:23.634Z,11.90
2023-05-04T05:51:50.145Z,12.10
2023-05-04T05:54:16.784Z,12.00
2023-05-04T05:56:43.349Z,12.00
2023-05-04T05:59:09.883Z,12.10
2023-05-04T06:01:36.446Z,12.10
2023-05-04T06:04:03.265Z,12.20
2023-05-04T06:06:29.939Z,12.20
2023-05-04T06:08:56.603Z,12.50
2023-05-04T06:11:23.228Z,12.70
2023-05-04T06:13:49.777Z,13.20
2023-05-04T06:18:43.356Z,13.60
2023-05-04T06:21:10.102Z,13.90
2023-05-04T06:28:32.492Z,14.80
2023-05-04T06:35:53.786Z,15.90
2023-05-04T06:40:47.768Z,16.80
2023-05-04T06:43:14.320Z,16.90
2023-05-04T06:45:41.003Z,17.30
2023-05-04T06:48:08.823Z,17.40
2023-05-04T06:50:36.187Z,17.50
2023-05-04T06:53:04.543Z,17.80
2023-05-04T06:55:31.749Z,18.40
2023-05-04T06:57:58.537Z,18.90
2023-05-04T07:00:25.300Z,19.30
2023-05-04T07:02:52.784Z,19.30
2023-05-04T07:05:22.762Z,19.70
2023-05-04T07:07:51.260Z,19.90
2023-05-04T07:10:19.566Z,20.40
2023-05-04T07:12:46.689Z,20.80
2023-05-04T07:15:13.324Z,21.20
2023-05-04T07:17:40.245Z,21.80
2023-05-04T07:20:07.328Z,22.00
2023-05-04T07:22:34.115Z,22.40
2023-05-04T07:25:01.192Z,22.90
2023-05-04T07:27:27.806Z,23.10
2023-05-04T07:29:55.147Z,23.80
2023-05-04T07:32:21.925Z,23.80
2023-05-04T07:34:48.586Z,24.10
2023-05-04T07:37:17.919Z,24.10
2023-05-04T07:39:44.706Z,24.00
2023-05-04T07:42:11.742Z,24.10
2023-05-04T07:44:38.418Z,24.40
2023-05-04T07:47:05.031Z,24.80
2023-05-04T07:49:32.090Z,23.50
2023-05-04T07:51:58.746Z,24.90
2023-05-04T07:54:25.539Z,25.10
2023-05-04T07:56:52.104Z,25.50
2023-05-04T07:59:18.923Z,25.70
2023-05-04T08:01:46.478Z,26.00
2023-05-04T08:04:13.234Z,26.20
2023-05-04T08:06:39.860Z,26.20
2023-05-04T08:09:06.670Z,26.80
2023-05-04T08:11:34.738Z,27.20
2023-05-04T08:14:01.355Z,27.40
2023-05-04T08:16:29.205Z,27.10
2023-05-04T08:19:01.155Z,27.80
2023-05-04T08:21:27.923Z,27.70
2023-05-04T08:23:54.551Z,28.20
2023-05-04T08:26:21.211Z,28.40
2023-05-04T08:28:48.332Z,29.10
2023-05-04T08:31:15.206Z,29.40
2023-05-04T08:33:41.773Z,30.10
2023-05-04T08:36:09.495Z,30.20
2023-05-04T08:38:36.179Z,30.70
2023-05-04T08:41:05.858Z,31.10
2023-05-04T08:43:36.141Z,31.80
2023-05-04T08:46:03.966Z,31.40
2023-05-04T08:48:34.945Z,31.30
2023-05-04T08:51:02.501Z,31.10
2023-05-04T08:53:29.942Z,31.40
2023-05-04T08:55:59.613Z,31.80
2023-05-04T08:58:27.010Z,31.90
2023-05-04T09:00:54.882Z,32.30
2023-05-04T09:03:21.680Z,32.60
2023-05-04T09:05:50.730Z,31.80
2023-05-04T09:08:17.798Z,31.00
2023-05-04T09:10:44.759Z,30.40
2023-05-04T09:13:11.396Z,30.90
2023-05-04T09:15:38.027Z,31.40
2023-05-04T09:18:05.401Z,31.70
2023-05-04T09:20:43.128Z,31.50
2023-05-04T09:23:11.794Z,31.40
2023-05-04T09:25:54.855Z,31.30
2023-05-04T09:28:32.927Z,31.00
2023-05-04T09:31:00.407Z,31.90
2023-05-04T09:33:28.028Z,32.60
2023-05-04T09:35:54.550Z,32.60
2023-05-04T09:38:26.004Z,32.60
2023-05-04T09:40:52.664Z,32.60
2023-05-04T09:43:19.261Z,33.50
2023-05-04T09:45:46.680Z,34.20
2023-05-04T09:48:26.842Z,34.20
2023-05-04T09:50:54.986Z,34.60
2023-05-04T09:53:23.286Z,34.70
2023-05-04T09:56:02.201Z,35.40
2023-05-04T09:58:30.501Z,35.40
2023-05-04T10:00:58.173Z,35.10
2023-05-04T10:03:26.340Z,35.30
2023-05-04T10:05:53.249Z,35.40
2023-05-04T10:08:19.945Z,35.40
2023-05-04T10:10:46.554Z,35.90
2023-05-04T10:13:13.211Z,35.80
2023-05-04T10:15:42.216Z,35.40
2023-05-04T10:18:15.415Z,35.60
2023-05-04T10:21:01.057Z,36.40
2023-05-04T10:23:42.898Z,36.30
2023-05-04T10:26:18.985Z,35.90
2023-05-04T10:28:55.136Z,35.90
2023-05-04T10:31:22.012Z,35.90
2023-05-04T10:33:48.749Z,36.00
2023-05-04T10:36:15.388Z,35.90
2023-05-04T10:38:42.184Z,35.80
2023-05-04T10:41:18.894Z,35.90
2023-05-04T10:43:53.463Z,35.90
2023-05-04T10:46:23.966Z,36.00
2023-05-04T10:48:50.996Z,36.00
2023-05-04T10:51:18.854Z,36.00
2023-05-04T10:53:48.115Z,35.40
2023-05-04T10:56:27.242Z,35.20
2023-05-04T10:58:54.302Z,35.10
2023-05-04T11:01:21.717Z,35.20
2023-05-04T11:03:48.727Z,34.90
2023-05-04T11:06:22.746Z,33.70
2023-05-04T11:09:03.256Z,33.60
2023-05-04T11:11:29.975Z,33.40
2023-05-04T11:13:57.006Z,33.80
2023-05-04T11:16:24.360Z,33.90
2023-05-04T11:18:51.238Z,33.70
2023-05-04T11:21:27.361Z,33.90
2023-05-04T11:23:57.456Z,33.70
2023-05-04T11:26:24.889Z,32.90
2023-05-04T11:28:51.681Z,33.50
2023-05-04T11:31:19.101Z,32.90
2023-05-04T11:33:47.072Z,31.80
2023-05-04T11:36:13.780Z,32.00
2023-05-04T11:38:40.931Z,32.10
2023-05-04T11:41:08.294Z,31.80
2023-05-04T11:43:36.660Z,31.40
2023-05-04T11:46:04.658Z,31.30
2023-05-04T11:48:32.344Z,31.10
2023-05-04T11:50:59.040Z,31.30
2023-05-04T11:53:26.368Z,31.20
2023-05-04T11:55:54.473Z,31.30
2023-05-04T11:58:24.644Z,31.10
2023-05-04T12:00:55.914Z,31.60
2023-05-04T12:03:32.558Z,32.00
2023-05-04T12:06:10.582Z,31.50
2023-05-04T12:08:42.280Z,31.30
2023-05-04T12:11:10.910Z,31.60
2023-05-04T12:13:37.806Z,31.00
2023-05-04T12:16:10.963Z,31.00
2023-05-04T12:18:37.953Z,31.50
2023-05-04T12:21:13.770Z,32.00
2023-05-04T12:23:41.234Z,31.50
2023-05-04T12:26:08.189Z,31.30
2023-05-04T12:28:35.913Z,31.30
2023-05-04T12:31:02.969Z,31.50
2023-05-04T12:33:29.668Z,32.00
2023-05-04T12:35:56.726Z,32.40
2023-05-04T12:38:23.421Z,32.40
2023-05-04T12:40:50.821Z,32.40
2023-05-04T12:43:20.882Z,32.50
2023-05-04T12:45:47.642Z,32.20
2023-05-04T12:48:14.314Z,32.40
2023-05-04T12:50:40.899Z,32.20
2023-05-04T12:53:07.508Z,32.30
2023-05-04T12:55:34.082Z,32.30
2023-05-04T12:58:00.840Z,32.30
2023-05-04T13:00:27.385Z,32.70
2023-05-04T13:02:54.172Z,32.50
2023-05-04T13:05:22.997Z,32.40
2023-05-04T13:07:49.592Z,32.50
2023-05-04T13:10:16.641Z,32.30
2023-05-04T13:12:45.467Z,32.60
2023-05-04T13:15:12.899Z,32.40
2023-05-04T13:17:39.695Z,32.70
2023-05-04T13:20:06.774Z,32.80
2023-05-04T13:22:33.490Z,32.90
2023-05-04T13:25:00.095Z,32.90
2023-05-04T13:27:26.844Z,32.50
2023-05-04T13:29:53.700Z,32.40
2023-05-04T13:32:20.383Z,32.00
2023-05-04T13:34:47.132Z,31.70
2023-05-04T13:37:18.188Z,31.60
2023-05-04T13:39:45.259Z,31.50
2023-05-04T13:42:12.293Z,30.60
2023-05-04T13:44:44.561Z,30.60
2023-05-04T13:47:12.574Z,30.20
2023-05-04T13:49:39.550Z,29.80
2023-05-04T13:52:06.539Z,29.70
2023-05-04T13:54:33.314Z,30.00
2023-05-04T13:57:00.597Z,29.80
2023-05-04T13:59:27.168Z,29.80
2023-05-04T14:01:54.012Z,29.20
2023-05-04T14:04:21.120Z,29.00
2023-05-04T14:06:51.133Z,29.40
2023-05-04T14:09:18.330Z,29.30
2023-05-04T14:11:47.966Z,29.60
2023-05-04T14:14:14.800Z,29.80
2023-05-04T14:16:42.052Z,30.00
2023-05-04T14:19:08.668Z,29.80
2023-05-04T14:21:36.222Z,29.60
2023-05-04T14:24:03.388Z,29.00
2023-05-04T14:26:31.493Z,28.90
2023-05-04T14:28:58.230Z,28.40
2023-05-04T14:31:24.805Z,27.70
2023-05-04T14:33:51.411Z,27.60
2023-05-04T14:36:17.991Z,27.70
2023-05-04T14:38:45.167Z,27.40
2023-05-04T14:41:13.627Z,27.70
2023-05-04T14:43:41.810Z,27.50
2023-05-04T14:46:12.753Z,27.50
2023-05-04T14:48:39.581Z,27.80
2023-05-04T14:51:06.251Z,27.70
2023-05-04T14:53:36.838Z,27.10
2023-05-04T14:56:04.536Z,26.30
2023-05-04T14:58:31.297Z,26.20
2023-05-04T15:00:57.879Z,26.00
2023-05-04T15:03:25.914Z,26.00
2023-05-04T15:05:52.774Z,26.10
2023-05-04T15:08:19.362Z,26.10
2023-05-04T15:10:46.090Z,26.00
2023-05-04T15:13:15.515Z,26.60
2023-05-04T15:15:42.887Z,25.70
2023-05-04T15:18:09.651Z,25.10
2023-05-04T15:20:37.560Z,25.10
2023-05-04T15:23:10.299Z,25.00
2023-05-04T15:25:40.183Z,25.20
2023-05-04T15:28:11.016Z,25.10
2023-05-04T15:30:38.334Z,24.90
2023-05-04T15:33:05.532Z,24.70
2023-05-04T15:35:33.140Z,24.70
2023-05-04T15:38:00.146Z,24.80
2023-05-04T15:40:27.112Z,24.90
2023-05-04T15:42:53.780Z,27.10
2023-05-04T15:45:20.992Z,25.00
2023-05-04T15:47:47.721Z,24.90
2023-05-04T15:50:14.493Z,24.80
2023-05-04T15:52:41.102Z,24.70
2023-05-04T15:55:23.434Z,24.80
2023-05-04T15:57:50.949Z,24.70
2023-05-04T16:00:17.752Z,24.40
2023-05-04T16:02:44.422Z,24.20
2023-05-04T16:05:11.374Z,24.20
2023-05-04T16:07:37.960Z,24.20
2023-05-04T16:10:05.317Z,24.10
2023-05-04T16:12:32.065Z,24.10
2023-05-04T16:14:58.659Z,24.00
2023-05-04T16:17:25.779Z,24.00
2023-05-04T16:19:52.611Z,23.70
2023-05-04T16:22:19.256Z,23.70
2023-05-04T16:24:46.592Z,23.60
2023-05-04T16:27:13.325Z,23.50
2023-05-04T16:29:39.949Z,23.20
2023-05-04T16:32:06.870Z,23.20
2023-05-04T16:34:33.461Z,23.00
2023-05-04T16:37:01.007Z,23.00
2023-05-04T16:39:30.068Z,22.90
2023-05-04T16:41:57.450Z,22.50
2023-05-04T16:46:51.662Z,22.40
2023-05-04T16:51:45.577Z,22.20
2023-05-04T16:54:12.137Z,22.30
2023-05-04T16:56:38.941Z,22.40
2023-05-04T16:59:05.559Z,22.30
2023-05-04T17:01:32.696Z,22.20
2023-05-04T17:03:59.326Z,22.20
2023-05-04T17:06:26.803Z,22.10
2023-05-04T17:08:53.378Z,22.10
2023-05-04T17:11:22.004Z,22.00
2023-05-04T17:13:48.675Z,21.80
2023-05-04T17:16:15.527Z,21.80
2023-05-04T17:18:42.130Z,21.80
2023-05-04T17:21:08.781Z,21.70
2023-05-04T17:23:35.374Z,21.60
2023-05-04T17:26:02.019Z,21.50
2023-05-04T17:28:29.328Z,21.40
2023-05-04T17:30:56.164Z,21.50
2023-05-04T17:33:23.812Z,21.40
2023-05-04T17:35:50.570Z,21.40
2023-05-04T17:38:17.113Z,21.50
2023-05-04T17:40:43.865Z,21.50
2023-05-04T17:43:10.588Z,21.40
2023-05-04T17:45:37.211Z,21.40
2023-05-04T17:48:04.756Z,21.30
2023-05-04T17:50:31.394Z,21.30
2023-05-04T17:52:58.145Z,21.10
2023-05-04T17:55:25.817Z,20.90
2023-05-04T17:57:53.279Z,20.80
2023-05-04T18:00:20.268Z,20.70
2023-05-04T18:02:47.001Z,20.50
2023-05-04T18:05:13.681Z,20.40
2023-05-04T18:07:42.023Z,20.40
2023-05-04T18:10:09.056Z,20.30
2023-05-04T18:12:38.022Z,20.20
2023-05-04T18:17:40.853Z,20.00
2023-05-04T18:27:33.529Z,19.80
2023-05-04T18:34:54.816Z,19.70
2023-05-04T18:37:21.625Z,19.60
2023-05-04T18:42:15.274Z,19.40
2023-05-04T18:44:41.912Z,19.20
2023-05-04T19:04:19.469Z,19.70
2023-05-04T19:06:47.616Z,19.80
2023-05-04T19:09:14.882Z,19.80
2023-05-04T19:21:30.566Z,19.80
2023-05-04T19:26:24.298Z,19.10
2023-05-04T19:46:05.403Z,17.80
2023-05-04T19:50:59.529Z,17.40
2023-05-04T19:53:27.908Z,17.40
2023-05-04T19:58:25.823Z,17.30
2023-05-04T20:13:08.527Z,17.00
2023-05-04T20:20:29.534Z,16.50
2023-05-04T20:30:19.498Z,16.10
2023-05-04T20:32:47.635Z,15.80
2023-05-04T20:35:14.265Z,15.60
2023-05-04T20:37:40.855Z,15.50
2023-05-04T20:42:34.912Z,15.40
2023-05-04T20:47:28.992Z,15.20
2023-05-04T21:04:39.758Z,14.90
2023-05-04T21:07:06.282Z,14.80
2023-05-04T21:24:16.192Z,14.50
2023-05-04T21:26:42.925Z,14.40
2023-05-04T21:29:12.961Z,14.30
2023-05-04T21:31:39.859Z,14.20
2023-05-04T21:34:06.915Z,14.10
2023-05-04T21:36:33.479Z,14.00
2023-05-04T21:39:00.124Z,13.80
2023-05-04T21:41:26.705Z,13.70
2023-05-04T21:43:53.270Z,13.50
2023-05-04T21:46:19.881Z,13.60
2023-05-04T21:48:46.703Z,13.50
2023-05-04T21:51:13.422Z,13.50
2023-05-04T21:53:42.505Z,13.50
2023-05-04T21:56:09.678Z,13.40
2023-05-04T21:58:43.024Z,15.60
2023-05-04T22:01:09.896Z,12.70
2023-05-04T22:03:36.763Z,13.20
2023-05-04T22:06:03.602Z,13.10
2023-05-04T22:08:30.492Z,13.10
2023-05-04T22:10:58.521Z,13.20
2023-05-04T22:13:25.796Z,12.90
2023-05-04T22:15:53.390Z,12.90
2023-05-04T22:18:20.472Z,12.80
2023-05-04T22:20:47.499Z,12.80
2023-05-04T22:23:14.389Z,12.80
2023-05-04T22:25:41.004Z,12.70
2023-05-04T22:30:34.908Z,12.60
2023-05-04T22:33:01.837Z,12.40
2023-05-04T22:35:28.589Z,12.40
2023-05-04T22:37:55.531Z,12.40
2023-05-04T22:40:22.480Z,12.30
2023-05-04T22:42:49.276Z,12.30
2023-05-04T22:45:17.516Z,12.20
2023-05-04T22:47:44.532Z,12.20
2023-05-04T22:50:11.119Z,12.10
2023-05-04T22:52:38.099Z,12.00
2023-05-04T22:55:05.736Z,12.00
2023-05-04T22:57:32.398Z,12.00
2023-05-04T22:59:59.051Z,11.90
2023-05-04T23:02:25.777Z,11.80
2023-05-04T23:04:53.149Z,12.00
2023-05-04T23:07:19.997Z,11.80
2023-05-04T23:09:46.659Z,11.80
2023-05-04T23:12:13.359Z,11.70
2023-05-04T23:14:39.970Z,11.60
2023-05-04T23:17:06.522Z,8.70
2023-05-04T23:19:33.680Z,11.50
2023-05-04T23:22:00.366Z,11.40
2023-05-04T23:24:26.964Z,11.50
2023-05-04T23:26:54.070Z,11.40
2023-05-04T23:29:20.820Z,11.30
2023-05-04T23:31:47.438Z,9.80
2023-05-04T23:36:41.167Z,11.20
2023-05-04T23:39:07.785Z,11.10
2023-05-04T23:41:34.494Z,11.10
2023-05-04T23:44:01.858Z,11.10
2023-05-04T23:46:28.496Z,11.10
2023-05-04T23:48:55.058Z,11.10
2023-05-04T23:51:21.810Z,11.10
2023-05-04T23:53:48.392Z,11.10
2023-05-04T23:56:15.214Z,11.10
2023-05-04T23:58:41.962Z,11.20
